Terminal Aerodrome Forecast
Issued by NWS Sioux Falls, SD

Home | Current Version | Previous Version | Graphics & Text | Print | Product List | Glossary Off
Versions: 1 2 3 4 5 6 7 8 9 10 11 12 13 14 15 16 17 18 19 20 21 22 23 24 25 26 27 28 29 30 31 32 33 34 35 36 37

476
FTUS43 KFSD 141132
TAFSUX
TAF
KSUX 141132Z 1412/1512 15012KT 4SM -SN OVC025
     FM141400 17009KT P6SM OVC015
     FM141500 17007KT P6SM OVC025
     FM141700 25005KT P6SM OVC025
     FM142100 30007KT P6SM BKN025
     FM150000 18005KT P6SM BKN050
     FM150900 28004KT P6SM BKN090=

USA.gov is the U.S. government's official web portal to all federal, state and local government web resources and services.